»·PEaware :: ASA611 KLAS-KSEA

ASA611 :: KLAS-KSEA

FLIGHT INFORMATION

Flight Status: Arrived
Operator:
Alaska Airlines
More flights by this operator :: More flights under this callsign
Pilot: Brian T. (24242)
Aircraft: BOEING 737-800
(B738)
More flights by this aircraft type
Origin: KLAS McCarran Intl
United States
Destination: KSEA Seattle-Tacoma Intl
United States
More flights between these airports :: More routes between these airports
Route: +SHEAD1 OAL LOMIA LKV HAWKZ7
File this flight plan on PilotEdge
Remarks: Flying in VR (give me a bit on those freq changes).
Altitude:
(Current/Filed)
30,000ft
Speed:
(Current/Filed)
460kts
Departed: 17-May-19 04:17 PM
Arrived: 17-May-19 05:20 PM
Distance/Time
Traveled:
752nm/1:03
Distance/Time
To Go:
Arrived

Flight Plot

Page will automatically refresh every two minutes.

Flight plan parsing failed; only flown route is shown


Map Options




Map Legend


Flown Route
Filed Route
Departure Airport
Arrival Airport
Navaid (VOR, NDB)
Fix

Horizontal Profiles

Position Reports

Time Latitude Longitude Heading Altitude Ground
Speed
17-May-19 16:15 41.940155 -120.086191 0 36036ft 0kts
17-May-19 16:16 42.042224 -120.170501 326 36030ft 431kts
17-May-19 16:17 42.144198 -120.255043 327 36037ft 431kts
17-May-19 16:18 42.247322 -120.337383 331 36037ft 434kts
17-May-19 16:19 42.354790 -120.411449 331 36034ft 432kts
17-May-19 16:20 42.461718 -120.485439 331 36036ft 433kts
17-May-19 16:21 42.559684 -120.547517 334 36030ft 434kts
17-May-19 16:22 42.644466 -120.598675 334 36032ft 433kts
17-May-19 16:23 42.754070 -120.665168 333 36041ft 433kts
17-May-19 16:24 42.851515 -120.724557 333 36043ft 433kts
17-May-19 16:25 42.883544 -120.744097 333 36029ft 434kts
17-May-19 16:26 42.997772 -120.814031 334 36042ft 465kts
17-May-19 16:27 43.118307 -120.888043 336 36017ft 481kts
17-May-19 16:28 43.240006 -120.963125 336 35990ft 480kts
17-May-19 16:29 43.352861 -121.033112 334 35991ft 479kts
17-May-19 16:30 43.472433 -121.107541 333 35988ft 469kts
17-May-19 16:31 43.589621 -121.180791 333 35990ft 458kts
17-May-19 16:32 43.704909 -121.253162 333 35991ft 454kts
17-May-19 16:33 43.819506 -121.325413 333 35986ft 454kts
17-May-19 16:34 43.934623 -121.398294 333 35991ft 454kts
17-May-19 16:35 44.049502 -121.471372 333 35990ft 455kts
17-May-19 16:36 44.164385 -121.544692 333 35989ft 455kts
17-May-19 16:37 44.279460 -121.618523 333 35984ft 454kts
17-May-19 16:38 44.378827 -121.682531 333 35987ft 454kts
17-May-19 16:39 44.430907 -121.716144 333 35986ft 454kts
17-May-19 16:40 44.539417 -121.786433 333 35981ft 454kts
17-May-19 16:41 44.653837 -121.860870 333 35982ft 454kts
17-May-19 16:42 44.768582 -121.935808 333 36029ft 454kts
17-May-19 16:43 44.882843 -122.010794 333 36048ft 454kts
17-May-19 16:44 44.996848 -122.085926 332 36047ft 457kts
17-May-19 16:45 45.115937 -122.164809 334 36046ft 491kts
17-May-19 16:46 45.189380 -122.213601 334 36044ft 500kts
17-May-19 16:47 45.285222 -122.277501 334 36043ft 499kts
17-May-19 16:48 45.404723 -122.357522 334 36045ft 500kts
17-May-19 16:49 45.522539 -122.436770 334 36047ft 499kts
17-May-19 16:50 45.640191 -122.516287 334 36045ft 499kts
17-May-19 16:51 45.757737 -122.599707 337 36062ft 499kts
17-May-19 16:52 45.885382 -122.637918 355 36044ft 498kts
17-May-19 16:53 46.018209 -122.662058 352 35554ft 498kts
17-May-19 16:54 46.151672 -122.688756 353 34298ft 498kts
17-May-19 16:55 46.270826 -122.712325 352 32522ft 501kts
17-May-19 16:56 46.394280 -122.724649 358 30489ft 500kts
17-May-19 16:57 46.513567 -122.728969 357 29294ft 498kts
17-May-19 16:58 46.631712 -122.733348 357 28432ft 489kts
17-May-19 16:59 46.744310 -122.737333 356 25864ft 465kts
17-May-19 17:00 46.835958 -122.685109 45 24019ft 419kts
17-May-19 17:01 46.907445 -122.588162 49 22065ft 387kts
17-May-19 17:02 46.987151 -122.523721 21 19544ft 377kts
17-May-19 17:03 47.065164 -122.490687 358 16680ft 368kts
17-May-19 17:04 47.139028 -122.487008 0 14050ft 360kts
17-May-19 17:06 47.199623 -122.478286 3 11702ft 353kts
17-May-19 17:07 47.247744 -122.471115 3 10069ft 340kts
17-May-19 17:08 47.298956 -122.463401 3 9055ft 306kts
17-May-19 17:09 47.356201 -122.454794 0 8110ft 275kts
17-May-19 17:10 47.407091 -122.454931 356 6765ft 270kts
17-May-19 17:11 47.464536 -122.454885 357 5564ft 253kts
17-May-19 17:12 47.518613 -122.454548 357 4593ft 236kts
17-May-19 17:13 47.578695 -122.454360 359 3981ft 234kts
17-May-19 17:14 47.605882 -122.399595 92 3488ft 193kts
17-May-19 17:15 47.596396 -122.339032 144 3031ft 181kts
17-May-19 17:16 47.558164 -122.316067 183 2436ft 160kts
17-May-19 17:17 47.520840 -122.317546 179 1597ft 154kts
17-May-19 17:18 47.486809 -122.317669 182 937ft 129kts
17-May-19 17:19 47.455732 -122.317933 181 441ft 119kts
17-May-19 17:20 47.443997 -122.315941 148 441ft 30kts
17-May-19 17:21 47.440445 -122.310031 151 441ft 22kts
17-May-19 17:22 47.439879 -122.306387 1 441ft 13kts
17-May-19 17:23 47.442652 -122.306378 0 441ft 13kts
17-May-19 17:24 47.446219 -122.306343 359 441ft 18kts
17-May-19 17:24 47.447685 -122.304883 90 441ft 10kts
17-May-19 17:26 47.445670 -122.302616 233 441ft 0kts
17-May-19 17:27 47.445628 -122.303225 268 441ft 0kts
17-May-19 17:27 47.445628 -122.303225 268 441ft 0kts
17-May-19 17:28 47.445628 -122.303225 268 441ft 0kts
17-May-19 17:29 47.445628 -122.303225 268 441ft 0kts
17-May-19 17:30 47.445628 -122.303225 268 441ft 0kts
17-May-19 17:31 47.445628 -122.303225 268 441ft 0kts
17-May-19 17:32 47.445628 -122.303225 268 441ft 0kts
17-May-19 17:33 47.445628 -122.303225 268 441ft 0kts

Navigation Log

Ident Type
Flight plan parsing failed, navigation log unavailable